sensor_id;sensor_type;location;lat;lon;timestamp;temperature;humidity
21108;DHT22;10712;52.944;9.098;2023-03-12T00:00:48;1.10;83.10
21108;DHT22;10712;52.944;9.098;2023-03-12T00:03:15;1.10;83.20
21108;DHT22;10712;52.944;9.098;2023-03-12T00:05:42;1.00;83.20
21108;DHT22;10712;52.944;9.098;2023-03-12T00:08:09;1.00;83.20
21108;DHT22;10712;52.944;9.098;2023-03-12T00:10:38;1.00;83.20
21108;DHT22;10712;52.944;9.098;2023-03-12T00:13:05;1.00;83.40
21108;DHT22;10712;52.944;9.098;2023-03-12T00:15:35;1.00;83.40
21108;DHT22;10712;52.944;9.098;2023-03-12T00:18:02;1.00;83.50
21108;DHT22;10712;52.944;9.098;2023-03-12T00:20:28;1.00;83.40
21108;DHT22;10712;52.944;9.098;2023-03-12T00:22:54;1.00;83.60
21108;DHT22;10712;52.944;9.098;2023-03-12T00:25:20;0.90;83.60
21108;DHT22;10712;52.944;9.098;2023-03-12T00:27:46;0.90;83.60
21108;DHT22;10712;52.944;9.098;2023-03-12T00:30:12;0.90;83.70
21108;DHT22;10712;52.944;9.098;2023-03-12T00:32:38;0.90;83.80
21108;DHT22;10712;52.944;9.098;2023-03-12T00:35:05;0.90;83.80
21108;DHT22;10712;52.944;9.098;2023-03-12T00:37:31;0.90;83.80
21108;DHT22;10712;52.944;9.098;2023-03-12T00:39:58;0.90;83.90
21108;DHT22;10712;52.944;9.098;2023-03-12T00:42:26;0.80;83.80
21108;DHT22;10712;52.944;9.098;2023-03-12T00:44:52;0.80;83.90
21108;DHT22;10712;52.944;9.098;2023-03-12T00:47:18;0.80;83.90
21108;DHT22;10712;52.944;9.098;2023-03-12T00:49:44;0.80;84.00
21108;DHT22;10712;52.944;9.098;2023-03-12T00:52:10;0.80;84.00
21108;DHT22;10712;52.944;9.098;2023-03-12T00:54:36;0.80;84.10
21108;DHT22;10712;52.944;9.098;2023-03-12T00:57:02;0.80;84.10
21108;DHT22;10712;52.944;9.098;2023-03-12T00:59:28;0.80;84.20
21108;DHT22;10712;52.944;9.098;2023-03-12T01:01:54;0.80;84.20
21108;DHT22;10712;52.944;9.098;2023-03-12T01:04:20;0.80;84.30
21108;DHT22;10712;52.944;9.098;2023-03-12T01:06:45;0.70;84.40
21108;DHT22;10712;52.944;9.098;2023-03-12T01:09:12;0.70;84.50
21108;DHT22;10712;52.944;9.098;2023-03-12T01:11:37;0.70;84.50
21108;DHT22;10712;52.944;9.098;2023-03-12T01:14:05;0.70;84.70
21108;DHT22;10712;52.944;9.098;2023-03-12T01:16:33;0.70;84.70
21108;DHT22;10712;52.944;9.098;2023-03-12T01:19:00;0.70;84.70
21108;DHT22;10712;52.944;9.098;2023-03-12T01:21:28;0.70;84.70
21108;DHT22;10712;52.944;9.098;2023-03-12T01:23:55;0.70;84.70
21108;DHT22;10712;52.944;9.098;2023-03-12T01:26:22;0.60;84.80
21108;DHT22;10712;52.944;9.098;2023-03-12T01:28:49;0.60;84.70
21108;DHT22;10712;52.944;9.098;2023-03-12T01:31:17;0.50;84.70
21108;DHT22;10712;52.944;9.098;2023-03-12T01:33:46;0.50;84.70
21108;DHT22;10712;52.944;9.098;2023-03-12T01:36:26;0.40;84.50
21108;DHT22;10712;52.944;9.098;2023-03-12T01:38:55;0.30;84.50
21108;DHT22;10712;52.944;9.098;2023-03-12T01:41:25;0.30;85.00
21108;DHT22;10712;52.944;9.098;2023-03-12T01:43:52;0.20;85.20
21108;DHT22;10712;52.944;9.098;2023-03-12T01:46:30;0.20;85.30
21108;DHT22;10712;52.944;9.098;2023-03-12T01:49:14;0.20;85.50
21108;DHT22;10712;52.944;9.098;2023-03-12T01:52:23;0.20;85.60
21108;DHT22;10712;52.944;9.098;2023-03-12T01:55:08;0.10;85.70
21108;DHT22;10712;52.944;9.098;2023-03-12T01:57:47;0.10;85.60
21108;DHT22;10712;52.944;9.098;2023-03-12T02:00:20;0.10;85.60
21108;DHT22;10712;52.944;9.098;2023-03-12T02:02:49;0.00;85.70
21108;DHT22;10712;52.944;9.098;2023-03-12T02:05:36;0.00;85.80
21108;DHT22;10712;52.944;9.098;2023-03-12T02:08:10;0.00;85.90
21108;DHT22;10712;52.944;9.098;2023-03-12T02:10:38;0.00;86.00
21108;DHT22;10712;52.944;9.098;2023-03-12T02:13:04;0.00;86.00
21108;DHT22;10712;52.944;9.098;2023-03-12T02:15:32;-0.10;85.90
21108;DHT22;10712;52.944;9.098;2023-03-12T02:18:05;-0.10;86.00
21108;DHT22;10712;52.944;9.098;2023-03-12T02:26:40;-0.20;86.20
21108;DHT22;10712;52.944;9.098;2023-03-12T02:29:08;-0.20;86.10
21108;DHT22;10712;52.944;9.098;2023-03-12T02:31:41;-0.20;86.00
21108;DHT22;10712;52.944;9.098;2023-03-12T02:34:11;-0.30;86.00
21108;DHT22;10712;52.944;9.098;2023-03-12T02:36:37;-0.30;86.00
21108;DHT22;10712;52.944;9.098;2023-03-12T02:39:03;-0.30;86.10
21108;DHT22;10712;52.944;9.098;2023-03-12T02:41:43;-0.40;86.20
21108;DHT22;10712;52.944;9.098;2023-03-12T02:44:27;-0.40;86.30
21108;DHT22;10712;52.944;9.098;2023-03-12T02:46:58;-0.40;86.30
21108;DHT22;10712;52.944;9.098;2023-03-12T02:49:29;-0.40;86.50
21108;DHT22;10712;52.944;9.098;2023-03-12T02:51:58;-0.40;86.60
21108;DHT22;10712;52.944;9.098;2023-03-12T02:54:25;-0.40;86.60
21108;DHT22;10712;52.944;9.098;2023-03-12T02:56:51;-0.40;86.60
21108;DHT22;10712;52.944;9.098;2023-03-12T02:59:20;-0.50;86.60
21108;DHT22;10712;52.944;9.098;2023-03-12T03:01:54;-0.50;86.60
21108;DHT22;10712;52.944;9.098;2023-03-12T03:04:22;-0.50;86.70
21108;DHT22;10712;52.944;9.098;2023-03-12T03:06:48;-0.50;86.60
21108;DHT22;10712;52.944;9.098;2023-03-12T03:09:15;-0.50;86.60
21108;DHT22;10712;52.944;9.098;2023-03-12T03:11:41;-0.60;86.50
21108;DHT22;10712;52.944;9.098;2023-03-12T03:14:08;-0.60;86.50
21108;DHT22;10712;52.944;9.098;2023-03-12T03:16:35;-0.60;86.70
21108;DHT22;10712;52.944;9.098;2023-03-12T03:19:01;-0.60;86.60
21108;DHT22;10712;52.944;9.098;2023-03-12T03:21:27;-0.70;86.20
21108;DHT22;10712;52.944;9.098;2023-03-12T03:23:54;-0.70;86.30
21108;DHT22;10712;52.944;9.098;2023-03-12T03:26:22;-0.80;86.50
21108;DHT22;10712;52.944;9.098;2023-03-12T03:28:50;-0.80;86.50
21108;DHT22;10712;52.944;9.098;2023-03-12T03:31:16;-0.80;86.60
21108;DHT22;10712;52.944;9.098;2023-03-12T03:33:42;-0.80;86.80
21108;DHT22;10712;52.944;9.098;2023-03-12T03:36:10;-0.80;86.80
21108;DHT22;10712;52.944;9.098;2023-03-12T03:38:44;-0.80;86.80
21108;DHT22;10712;52.944;9.098;2023-03-12T03:41:18;-0.80;86.80
21108;DHT22;10712;52.944;9.098;2023-03-12T03:43:45;-0.80;86.80
21108;DHT22;10712;52.944;9.098;2023-03-12T03:46:13;-0.80;86.70
21108;DHT22;10712;52.944;9.098;2023-03-12T03:48:43;-0.90;86.40
21108;DHT22;10712;52.944;9.098;2023-03-12T03:51:10;-0.90;86.00
21108;DHT22;10712;52.944;9.098;2023-03-12T03:53:39;-1.00;86.00
21108;DHT22;10712;52.944;9.098;2023-03-12T03:56:07;-1.10;86.10
21108;DHT22;10712;52.944;9.098;2023-03-12T03:58:38;-1.10;86.50
21108;DHT22;10712;52.944;9.098;2023-03-12T04:01:04;-1.10;86.50
21108;DHT22;10712;52.944;9.098;2023-03-12T04:03:32;-1.20;86.50
21108;DHT22;10712;52.944;9.098;2023-03-12T04:06:00;-1.20;86.80
21108;DHT22;10712;52.944;9.098;2023-03-12T04:08:29;-1.20;86.90
21108;DHT22;10712;52.944;9.098;2023-03-12T04:10:57;-1.10;87.10
21108;DHT22;10712;52.944;9.098;2023-03-12T04:13:23;-1.10;87.10
21108;DHT22;10712;52.944;9.098;2023-03-12T04:15:51;-1.10;87.20
21108;DHT22;10712;52.944;9.098;2023-03-12T04:18:18;-1.10;87.30
21108;DHT22;10712;52.944;9.098;2023-03-12T04:20:44;-1.10;87.30
21108;DHT22;10712;52.944;9.098;2023-03-12T04:23:10;-1.10;87.30
21108;DHT22;10712;52.944;9.098;2023-03-12T04:25:37;-1.10;87.10
21108;DHT22;10712;52.944;9.098;2023-03-12T04:28:04;-1.20;86.80
21108;DHT22;10712;52.944;9.098;2023-03-12T04:30:31;-1.20;86.90
21108;DHT22;10712;52.944;9.098;2023-03-12T04:32:57;-1.20;86.90
21108;DHT22;10712;52.944;9.098;2023-03-12T04:35:23;-1.30;86.80
21108;DHT22;10712;52.944;9.098;2023-03-12T04:37:50;-1.40;86.90
21108;DHT22;10712;52.944;9.098;2023-03-12T04:40:17;-1.40;87.10
21108;DHT22;10712;52.944;9.098;2023-03-12T04:42:44;-1.40;87.20
21108;DHT22;10712;52.944;9.098;2023-03-12T04:45:11;-1.50;87.20
21108;DHT22;10712;52.944;9.098;2023-03-12T04:47:42;-1.50;87.30
21108;DHT22;10712;52.944;9.098;2023-03-12T04:50:09;-1.60;87.40
21108;DHT22;10712;52.944;9.098;2023-03-12T04:52:37;-1.60;87.60
21108;DHT22;10712;52.944;9.098;2023-03-12T04:55:05;-1.60;87.70
21108;DHT22;10712;52.944;9.098;2023-03-12T04:57:32;-1.60;87.70
21108;DHT22;10712;52.944;9.098;2023-03-12T04:59:57;-1.60;88.10
21108;DHT22;10712;52.944;9.098;2023-03-12T05:02:23;-1.60;88.20
21108;DHT22;10712;52.944;9.098;2023-03-12T05:04:49;-1.60;88.30
21108;DHT22;10712;52.944;9.098;2023-03-12T05:07:15;-1.60;88.30
21108;DHT22;10712;52.944;9.098;2023-03-12T05:09:41;-1.60;88.40
21108;DHT22;10712;52.944;9.098;2023-03-12T05:12:09;-1.60;88.50
21108;DHT22;10712;52.944;9.098;2023-03-12T05:14:35;-1.50;88.50
21108;DHT22;10712;52.944;9.098;2023-03-12T05:17:04;-1.60;88.50
21108;DHT22;10712;52.944;9.098;2023-03-12T05:19:32;-1.50;88.60
21108;DHT22;10712;52.944;9.098;2023-03-12T05:21:58;-1.50;88.70
21108;DHT22;10712;52.944;9.098;2023-03-12T05:24:30;-1.50;88.80
21108;DHT22;10712;52.944;9.098;2023-03-12T05:26:56;-1.40;88.90
21108;DHT22;10712;52.944;9.098;2023-03-12T05:29:23;-1.40;88.90
21108;DHT22;10712;52.944;9.098;2023-03-12T05:31:50;-1.40;89.00
21108;DHT22;10712;52.944;9.098;2023-03-12T05:34:16;-1.30;89.10
21108;DHT22;10712;52.944;9.098;2023-03-12T05:36:44;-1.20;89.10
21108;DHT22;10712;52.944;9.098;2023-03-12T05:39:14;-1.20;89.10
21108;DHT22;10712;52.944;9.098;2023-03-12T05:41:40;-1.10;89.10
21108;DHT22;10712;52.944;9.098;2023-03-12T05:44:11;-1.10;89.10
21108;DHT22;10712;52.944;9.098;2023-03-12T05:46:43;-1.00;89.00
21108;DHT22;10712;52.944;9.098;2023-03-12T05:49:09;-1.00;88.90
21108;DHT22;10712;52.944;9.098;2023-03-12T05:51:35;-0.90;88.80
21108;DHT22;10712;52.944;9.098;2023-03-12T05:54:01;-0.90;88.70
21108;DHT22;10712;52.944;9.098;2023-03-12T05:56:28;-0.90;88.60
21108;DHT22;10712;52.944;9.098;2023-03-12T05:58:54;-0.80;88.60
21108;DHT22;10712;52.944;9.098;2023-03-12T06:01:26;-0.80;88.50
21108;DHT22;10712;52.944;9.098;2023-03-12T06:03:55;-0.80;88.30
21108;DHT22;10712;52.944;9.098;2023-03-12T06:06:24;-0.70;88.10
21108;DHT22;10712;52.944;9.098;2023-03-12T06:08:50;-0.70;88.10
21108;DHT22;10712;52.944;9.098;2023-03-12T06:11:17;-0.70;88.00
21108;DHT22;10712;52.944;9.098;2023-03-12T06:13:43;-0.70;87.90
21108;DHT22;10712;52.944;9.098;2023-03-12T06:16:18;-0.60;87.80
21108;DHT22;10712;52.944;9.098;2023-03-12T06:18:52;-0.60;87.80
21108;DHT22;10712;52.944;9.098;2023-03-12T06:21:22;-0.60;87.70
21108;DHT22;10712;52.944;9.098;2023-03-12T06:23:51;-0.60;87.70
21108;DHT22;10712;52.944;9.098;2023-03-12T06:26:31;-0.50;87.60
21108;DHT22;10712;52.944;9.098;2023-03-12T06:28:57;-0.50;87.60
21108;DHT22;10712;52.944;9.098;2023-03-12T06:31:23;-0.50;87.50
21108;DHT22;10712;52.944;9.098;2023-03-12T06:33:49;-0.50;87.50
21108;DHT22;10712;52.944;9.098;2023-03-12T06:36:15;-0.40;87.50
21108;DHT22;10712;52.944;9.098;2023-03-12T06:38:41;-0.40;87.50
21108;DHT22;10712;52.944;9.098;2023-03-12T06:41:11;-0.40;87.40
21108;DHT22;10712;52.944;9.098;2023-03-12T06:43:39;-0.30;87.40
21108;DHT22;10712;52.944;9.098;2023-03-12T06:46:07;-0.30;87.40
21108;DHT22;10712;52.944;9.098;2023-03-12T06:48:35;-0.30;87.40
21108;DHT22;10712;52.944;9.098;2023-03-12T06:51:05;-0.30;87.30
21108;DHT22;10712;52.944;9.098;2023-03-12T06:53:33;-0.30;87.30
21108;DHT22;10712;52.944;9.098;2023-03-12T06:55:59;-0.20;87.30
21108;DHT22;10712;52.944;9.098;2023-03-12T06:58:25;-0.20;87.30
21108;DHT22;10712;52.944;9.098;2023-03-12T07:00:51;-0.20;87.20
21108;DHT22;10712;52.944;9.098;2023-03-12T07:03:18;-0.20;87.20
21108;DHT22;10712;52.944;9.098;2023-03-12T07:05:45;-0.10;87.30
21108;DHT22;10712;52.944;9.098;2023-03-12T07:08:12;-0.10;87.20
21108;DHT22;10712;52.944;9.098;2023-03-12T07:10:39;-0.10;87.20
21108;DHT22;10712;52.944;9.098;2023-03-12T07:13:05;0.00;87.20
21108;DHT22;10712;52.944;9.098;2023-03-12T07:15:31;0.00;87.20
21108;DHT22;10712;52.944;9.098;2023-03-12T07:18:03;0.10;87.00
21108;DHT22;10712;52.944;9.098;2023-03-12T07:20:31;0.10;87.00
21108;DHT22;10712;52.944;9.098;2023-03-12T07:22:58;0.20;86.90
21108;DHT22;10712;52.944;9.098;2023-03-12T07:25:24;0.20;86.90
21108;DHT22;10712;52.944;9.098;2023-03-12T07:27:50;0.20;86.80
21108;DHT22;10712;52.944;9.098;2023-03-12T07:30:16;0.30;86.70
21108;DHT22;10712;52.944;9.098;2023-03-12T07:32:42;0.30;86.60
21108;DHT22;10712;52.944;9.098;2023-03-12T07:35:08;0.30;86.50
21108;DHT22;10712;52.944;9.098;2023-03-12T07:37:34;0.40;86.40
21108;DHT22;10712;52.944;9.098;2023-03-12T07:40:00;0.40;86.40
21108;DHT22;10712;52.944;9.098;2023-03-12T07:42:26;0.50;86.40
21108;DHT22;10712;52.944;9.098;2023-03-12T07:44:55;0.50;86.30
21108;DHT22;10712;52.944;9.098;2023-03-12T07:47:20;0.50;86.30
21108;DHT22;10712;52.944;9.098;2023-03-12T07:49:46;0.60;86.30
21108;DHT22;10712;52.944;9.098;2023-03-12T07:52:12;0.60;86.20
21108;DHT22;10712;52.944;9.098;2023-03-12T07:54:38;0.70;86.00
21108;DHT22;10712;52.944;9.098;2023-03-12T07:57:04;0.70;85.90
21108;DHT22;10712;52.944;9.098;2023-03-12T07:59:30;0.80;85.80
21108;DHT22;10712;52.944;9.098;2023-03-12T08:01:56;0.80;85.70
21108;DHT22;10712;52.944;9.098;2023-03-12T08:04:21;0.80;85.50
21108;DHT22;10712;52.944;9.098;2023-03-12T08:06:48;0.80;85.30
21108;DHT22;10712;52.944;9.098;2023-03-12T08:09:13;0.90;85.10
21108;DHT22;10712;52.944;9.098;2023-03-12T08:11:39;0.90;84.90
21108;DHT22;10712;52.944;9.098;2023-03-12T08:14:05;0.90;84.90
21108;DHT22;10712;52.944;9.098;2023-03-12T08:16:31;0.90;84.80
21108;DHT22;10712;52.944;9.098;2023-03-12T08:18:57;1.00;84.70
21108;DHT22;10712;52.944;9.098;2023-03-12T08:21:23;1.00;84.50
21108;DHT22;10712;52.944;9.098;2023-03-12T08:23:49;1.00;84.00
21108;DHT22;10712;52.944;9.098;2023-03-12T08:26:15;1.00;83.60
21108;DHT22;10712;52.944;9.098;2023-03-12T08:28:41;1.10;83.50
21108;DHT22;10712;52.944;9.098;2023-03-12T08:31:07;1.10;83.50
21108;DHT22;10712;52.944;9.098;2023-03-12T08:33:34;1.10;83.50
21108;DHT22;10712;52.944;9.098;2023-03-12T08:36:00;1.10;83.50
21108;DHT22;10712;52.944;9.098;2023-03-12T08:38:26;1.20;83.40
21108;DHT22;10712;52.944;9.098;2023-03-12T08:40:56;1.20;83.50
21108;DHT22;10712;52.944;9.098;2023-03-12T08:43:24;1.20;83.60
21108;DHT22;10712;52.944;9.098;2023-03-12T08:45:57;1.30;83.30
21108;DHT22;10712;52.944;9.098;2023-03-12T08:48:26;1.40;83.10
21108;DHT22;10712;52.944;9.098;2023-03-12T08:50:59;1.40;83.10
21108;DHT22;10712;52.944;9.098;2023-03-12T08:53:29;1.40;83.00
21108;DHT22;10712;52.944;9.098;2023-03-12T08:55:56;1.50;83.00
21108;DHT22;10712;52.944;9.098;2023-03-12T08:58:23;1.60;83.00
21108;DHT22;10712;52.944;9.098;2023-03-12T09:00:50;1.60;82.90
21108;DHT22;10712;52.944;9.098;2023-03-12T09:03:17;1.70;82.80
21108;DHT22;10712;52.944;9.098;2023-03-12T09:05:44;1.70;82.50
21108;DHT22;10712;52.944;9.098;2023-03-12T09:08:10;1.70;82.40
21108;DHT22;10712;52.944;9.098;2023-03-12T09:10:37;1.80;82.30
21108;DHT22;10712;52.944;9.098;2023-03-12T09:13:04;1.80;82.10
21108;DHT22;10712;52.944;9.098;2023-03-12T09:15:30;1.90;82.00
21108;DHT22;10712;52.944;9.098;2023-03-12T09:17:57;1.90;81.90
21108;DHT22;10712;52.944;9.098;2023-03-12T09:20:23;2.00;81.80
21108;DHT22;10712;52.944;9.098;2023-03-12T09:22:50;2.10;81.40
21108;DHT22;10712;52.944;9.098;2023-03-12T09:25:17;2.10;81.20
21108;DHT22;10712;52.944;9.098;2023-03-12T09:27:45;2.10;80.80
21108;DHT22;10712;52.944;9.098;2023-03-12T09:30:16;2.20;80.60
21108;DHT22;10712;52.944;9.098;2023-03-12T09:32:44;2.20;80.60
21108;DHT22;10712;52.944;9.098;2023-03-12T09:35:11;2.30;80.70
21108;DHT22;10712;52.944;9.098;2023-03-12T09:37:39;2.30;80.40
21108;DHT22;10712;52.944;9.098;2023-03-12T09:40:06;2.30;80.30
21108;DHT22;10712;52.944;9.098;2023-03-12T09:45:46;2.50;79.70
21108;DHT22;10712;52.944;9.098;2023-03-12T09:48:27;2.50;79.50
21108;DHT22;10712;52.944;9.098;2023-03-12T09:54:00;2.70;79.00
21108;DHT22;10712;52.944;9.098;2023-03-12T09:56:28;2.70;78.80
21108;DHT22;10712;52.944;9.098;2023-03-12T09:58:54;2.80;78.50
21108;DHT22;10712;52.944;9.098;2023-03-12T10:10:06;3.00;77.20
21108;DHT22;10712;52.944;9.098;2023-03-12T10:13:12;3.10;76.90
21108;DHT22;10712;52.944;9.098;2023-03-12T10:19:04;3.20;76.70
21108;DHT22;10712;52.944;9.098;2023-03-12T10:21:53;3.20;76.70
21108;DHT22;10712;52.944;9.098;2023-03-12T10:27:12;3.30;76.50
21108;DHT22;10712;52.944;9.098;2023-03-12T10:29:43;3.40;76.60
21108;DHT22;10712;52.944;9.098;2023-03-12T10:32:17;3.40;76.70
21108;DHT22;10712;52.944;9.098;2023-03-12T10:34:50;3.50;76.50
21108;DHT22;10712;52.944;9.098;2023-03-12T10:37:28;3.50;76.00
21108;DHT22;10712;52.944;9.098;2023-03-12T10:39:58;3.50;75.80
21108;DHT22;10712;52.944;9.098;2023-03-12T10:42:29;3.60;75.80
21108;DHT22;10712;52.944;9.098;2023-03-12T10:47:41;3.70;75.60
21108;DHT22;10712;52.944;9.098;2023-03-12T10:50:22;3.80;75.50
21108;DHT22;10712;52.944;9.098;2023-03-12T10:52:51;3.80;75.40
21108;DHT22;10712;52.944;9.098;2023-03-12T10:55:35;3.90;75.30
21108;DHT22;10712;52.944;9.098;2023-03-12T10:58:01;4.00;75.30
21108;DHT22;10712;52.944;9.098;2023-03-12T11:00:30;4.10;75.40
21108;DHT22;10712;52.944;9.098;2023-03-12T11:02:57;4.10;75.00
21108;DHT22;10712;52.944;9.098;2023-03-12T11:05:31;4.20;74.90
21108;DHT22;10712;52.944;9.098;2023-03-12T11:08:00;4.20;74.80
21108;DHT22;10712;52.944;9.098;2023-03-12T11:10:44;4.30;74.40
21108;DHT22;10712;52.944;9.098;2023-03-12T11:13:27;4.30;74.50
21108;DHT22;10712;52.944;9.098;2023-03-12T11:15:57;4.30;74.70
21108;DHT22;10712;52.944;9.098;2023-03-12T11:23:38;4.40;74.50
21108;DHT22;10712;52.944;9.098;2023-03-12T11:26:21;4.40;73.90
21108;DHT22;10712;52.944;9.098;2023-03-12T11:32:26;4.50;72.70
21108;DHT22;10712;52.944;9.098;2023-03-12T11:35:00;4.50;72.60
21108;DHT22;10712;52.944;9.098;2023-03-12T11:38:15;4.50;73.10
21108;DHT22;10712;52.944;9.098;2023-03-12T11:44:13;4.50;73.70
21108;DHT22;10712;52.944;9.098;2023-03-12T11:55:57;4.30;77.40
21108;DHT22;10712;52.944;9.098;2023-03-12T11:59:01;4.30;78.70
21108;DHT22;10712;52.944;9.098;2023-03-12T12:01:35;4.20;79.80
21108;DHT22;10712;52.944;9.098;2023-03-12T12:04:21;4.10;80.80
21108;DHT22;10712;52.944;9.098;2023-03-12T12:07:12;4.00;81.50
21108;DHT22;10712;52.944;9.098;2023-03-12T12:10:00;3.90;82.40
21108;DHT22;10712;52.944;9.098;2023-03-12T12:18:27;3.60;84.40
21108;DHT22;10712;52.944;9.098;2023-03-12T12:30:26;3.50;86.30
21108;DHT22;10712;52.944;9.098;2023-03-12T12:35:41;3.40;87.00
21108;DHT22;10712;52.944;9.098;2023-03-12T12:40:52;3.40;87.60
21108;DHT22;10712;52.944;9.098;2023-03-12T12:43:29;3.40;87.80
21108;DHT22;10712;52.944;9.098;2023-03-12T12:46:04;3.40;88.00
21108;DHT22;10712;52.944;9.098;2023-03-12T12:48:47;3.40;88.20
21108;DHT22;10712;52.944;9.098;2023-03-12T12:51:20;3.40;88.40
21108;DHT22;10712;52.944;9.098;2023-03-12T12:54:09;3.40;88.60
21108;DHT22;10712;52.944;9.098;2023-03-12T12:57:43;3.40;88.80
21108;DHT22;10712;52.944;9.098;2023-03-12T13:02:55;3.30;89.20
21108;DHT22;10712;52.944;9.098;2023-03-12T13:06:04;3.30;89.50
21108;DHT22;10712;52.944;9.098;2023-03-12T13:08:35;3.30;89.70
21108;DHT22;10712;52.944;9.098;2023-03-12T13:11:25;3.30;89.90
21108;DHT22;10712;52.944;9.098;2023-03-12T13:21:49;3.30;90.60
21108;DHT22;10712;52.944;9.098;2023-03-12T13:27:44;3.30;90.90
21108;DHT22;10712;52.944;9.098;2023-03-12T13:43:14;3.30;91.80
21108;DHT22;10712;52.944;9.098;2023-03-12T13:46:06;3.40;92.00
21108;DHT22;10712;52.944;9.098;2023-03-12T13:48:44;3.40;92.10
21108;DHT22;10712;52.944;9.098;2023-03-12T13:51:17;3.40;92.30
21108;DHT22;10712;52.944;9.098;2023-03-12T13:54:03;3.40;92.30
21108;DHT22;10712;52.944;9.098;2023-03-12T13:56:31;3.40;92.40
21108;DHT22;10712;52.944;9.098;2023-03-12T13:59:14;3.40;92.50
21108;DHT22;10712;52.944;9.098;2023-03-12T14:01:47;3.40;92.60
21108;DHT22;10712;52.944;9.098;2023-03-12T14:04:18;3.40;92.80
21108;DHT22;10712;52.944;9.098;2023-03-12T14:13:08;3.50;93.20
21108;DHT22;10712;52.944;9.098;2023-03-12T14:16:09;3.50;93.20
21108;DHT22;10712;52.944;9.098;2023-03-12T14:18:51;3.50;93.50
21108;DHT22;10712;52.944;9.098;2023-03-12T14:21:19;3.50;93.60
21108;DHT22;10712;52.944;9.098;2023-03-12T14:23:55;3.50;93.60
21108;DHT22;10712;52.944;9.098;2023-03-12T14:26:25;3.50;93.70
21108;DHT22;10712;52.944;9.098;2023-03-12T14:29:19;3.60;93.80
21108;DHT22;10712;52.944;9.098;2023-03-12T14:31:51;3.60;93.90
21108;DHT22;10712;52.944;9.098;2023-03-12T14:34:24;3.60;94.20
21108;DHT22;10712;52.944;9.098;2023-03-12T14:37:05;3.60;94.20
21108;DHT22;10712;52.944;9.098;2023-03-12T14:39:52;3.60;94.30
21108;DHT22;10712;52.944;9.098;2023-03-12T14:42:33;3.60;94.30
21108;DHT22;10712;52.944;9.098;2023-03-12T14:47:44;3.60;94.30
21108;DHT22;10712;52.944;9.098;2023-03-12T14:50:27;3.60;94.30
21108;DHT22;10712;52.944;9.098;2023-03-12T14:53:09;3.60;94.30
21108;DHT22;10712;52.944;9.098;2023-03-12T14:56:22;3.70;94.30
21108;DHT22;10712;52.944;9.098;2023-03-12T14:58:50;3.70;94.30
21108;DHT22;10712;52.944;9.098;2023-03-12T15:01:30;3.70;94.30
21108;DHT22;10712;52.944;9.098;2023-03-12T15:04:03;3.80;94.30
21108;DHT22;10712;52.944;9.098;2023-03-12T15:06:41;3.80;94.30
21108;DHT22;10712;52.944;9.098;2023-03-12T15:09:34;3.80;94.30
21108;DHT22;10712;52.944;9.098;2023-03-12T15:12:06;3.80;94.30
21108;DHT22;10712;52.944;9.098;2023-03-12T15:14:42;3.90;94.30
21108;DHT22;10712;52.944;9.098;2023-03-12T15:17:15;3.90;94.30
21108;DHT22;10712;52.944;9.098;2023-03-12T15:19:43;3.90;94.30
21108;DHT22;10712;52.944;9.098;2023-03-12T15:22:16;3.90;94.30
21108;DHT22;10712;52.944;9.098;2023-03-12T15:24:45;4.00;94.30
21108;DHT22;10712;52.944;9.098;2023-03-12T15:27:30;4.00;94.30
21108;DHT22;10712;52.944;9.098;2023-03-12T15:29:59;4.00;94.30
21108;DHT22;10712;52.944;9.098;2023-03-12T15:32:27;4.00;94.30
21108;DHT22;10712;52.944;9.098;2023-03-12T15:34:55;4.00;94.30
21108;DHT22;10712;52.944;9.098;2023-03-12T15:37:29;4.00;94.30
21108;DHT22;10712;52.944;9.098;2023-03-12T15:40:04;4.10;94.30
21108;DHT22;10712;52.944;9.098;2023-03-12T15:42:42;4.10;94.30
21108;DHT22;10712;52.944;9.098;2023-03-12T15:45:20;4.10;94.30
21108;DHT22;10712;52.944;9.098;2023-03-12T15:47:50;4.10;94.30
21108;DHT22;10712;52.944;9.098;2023-03-12T15:50:26;4.10;94.30
21108;DHT22;10712;52.944;9.098;2023-03-12T15:55:36;4.20;94.30
21108;DHT22;10712;52.944;9.098;2023-03-12T15:58:24;4.30;94.30
21108;DHT22;10712;52.944;9.098;2023-03-12T16:00:53;4.30;94.30
21108;DHT22;10712;52.944;9.098;2023-03-12T16:03:21;4.40;94.30
21108;DHT22;10712;52.944;9.098;2023-03-12T16:05:48;4.40;94.30
21108;DHT22;10712;52.944;9.098;2023-03-12T16:08:19;4.50;94.30
21108;DHT22;10712;52.944;9.098;2023-03-12T16:10:48;4.50;94.30
21108;DHT22;10712;52.944;9.098;2023-03-12T16:13:17;4.60;94.30
21108;DHT22;10712;52.944;9.098;2023-03-12T16:15:45;4.60;94.30
21108;DHT22;10712;52.944;9.098;2023-03-12T16:18:17;4.70;94.30
21108;DHT22;10712;52.944;9.098;2023-03-12T16:20:45;4.70;94.30
21108;DHT22;10712;52.944;9.098;2023-03-12T16:23:12;4.80;94.30
21108;DHT22;10712;52.944;9.098;2023-03-12T16:25:41;4.80;94.30
21108;DHT22;10712;52.944;9.098;2023-03-12T16:28:13;4.90;94.30
21108;DHT22;10712;52.944;9.098;2023-03-12T16:30:41;4.90;94.30
21108;DHT22;10712;52.944;9.098;2023-03-12T16:33:11;5.00;94.30
21108;DHT22;10712;52.944;9.098;2023-03-12T16:35:39;5.00;94.30
21108;DHT22;10712;52.944;9.098;2023-03-12T16:38:05;5.10;94.30
21108;DHT22;10712;52.944;9.098;2023-03-12T16:40:33;5.20;94.30
21108;DHT22;10712;52.944;9.098;2023-03-12T16:43:02;5.20;94.30
21108;DHT22;10712;52.944;9.098;2023-03-12T16:45:33;5.20;94.30
21108;DHT22;10712;52.944;9.098;2023-03-12T16:48:03;5.30;94.30
21108;DHT22;10712;52.944;9.098;2023-03-12T16:50:30;5.30;94.30
21108;DHT22;10712;52.944;9.098;2023-03-12T16:52:56;5.40;94.30
21108;DHT22;10712;52.944;9.098;2023-03-12T16:55:26;5.40;94.30
21108;DHT22;10712;52.944;9.098;2023-03-12T16:58:00;5.40;94.30
21108;DHT22;10712;52.944;9.098;2023-03-12T17:00:29;5.50;94.30
21108;DHT22;10712;52.944;9.098;2023-03-12T17:02:57;5.50;94.30
21108;DHT22;10712;52.944;9.098;2023-03-12T17:05:28;5.60;94.30
21108;DHT22;10712;52.944;9.098;2023-03-12T17:07:55;5.60;94.30
21108;DHT22;10712;52.944;9.098;2023-03-12T17:10:23;5.70;94.30
21108;DHT22;10712;52.944;9.098;2023-03-12T17:12:51;5.70;94.30
21108;DHT22;10712;52.944;9.098;2023-03-12T17:15:25;5.70;94.30
21108;DHT22;10712;52.944;9.098;2023-03-12T17:17:55;5.70;94.30
21108;DHT22;10712;52.944;9.098;2023-03-12T17:20:23;5.70;94.30
21108;DHT22;10712;52.944;9.098;2023-03-12T17:22:49;5.80;94.30
21108;DHT22;10712;52.944;9.098;2023-03-12T17:25:27;5.80;94.30
21108;DHT22;10712;52.944;9.098;2023-03-12T17:27:54;5.90;94.30
21108;DHT22;10712;52.944;9.098;2023-03-12T17:30:26;5.90;94.30
21108;DHT22;10712;52.944;9.098;2023-03-12T17:33:00;5.90;94.30
21108;DHT22;10712;52.944;9.098;2023-03-12T17:35:28;6.00;94.30
21108;DHT22;10712;52.944;9.098;2023-03-12T17:37:54;6.10;94.30
21108;DHT22;10712;52.944;9.098;2023-03-12T17:40:20;6.10;94.30
21108;DHT22;10712;52.944;9.098;2023-03-12T17:42:45;6.20;94.30
21108;DHT22;10712;52.944;9.098;2023-03-12T17:45:11;6.20;94.30
21108;DHT22;10712;52.944;9.098;2023-03-12T17:47:37;6.20;94.30
21108;DHT22;10712;52.944;9.098;2023-03-12T17:50:05;6.20;94.30
21108;DHT22;10712;52.944;9.098;2023-03-12T17:52:32;6.20;94.30
21108;DHT22;10712;52.944;9.098;2023-03-12T17:54:58;6.30;94.30